Time;durP1;ratioP1;P1;durP2;ratioP2;P2;SDS_P1;SDS_P2;PMS_P1;PMS_P2;Temp;Humidity;BMP_temperature;BMP_pressure;BME280_temperature;BME280_humidity;BME280_pressure;Samples;Min_cycle;Max_cycle;Signal;HPM_P1;HPM_P2
2022/06/13 00:01:24;;;;;;;6.38;4.55;;;;;;;19.28;93.45;99771.69;5087716;28;20066;-31
2022/06/13 00:03:51;;;;;;;8.43;5.18;;;;;;;19.31;94.16;99783.84;5070053;28;20040;-30
2022/06/13 00:06:18;;;;;;;7.85;4.65;;;;;;;19.47;93.38;99779.91;5069992;28;20035;-30
2022/06/13 00:08:43;;;;;;;9.80;5.20;;;;;;;19.42;93.84;99779.97;5069670;28;20027;-34
2022/06/13 00:11:14;;;;;;;10.25;5.78;;;;;;;19.26;94.71;99785.50;5069801;28;20547;-32
2022/06/13 00:13:42;;;;;;;11.32;5.78;;;;;;;19.37;93.71;99774.59;5069692;28;20032;-39
2022/06/13 00:16:08;;;;;;;8.88;5.63;;;;;;;19.27;94.30;99795.22;5070153;28;20483;-31
2022/06/13 00:18:34;;;;;;;8.80;5.32;;;;;;;19.22;94.41;99776.34;5069894;28;20876;-34
2022/06/13 00:20:59;;;;;;;8.23;5.72;;;;;;;19.25;94.61;99780.41;5087942;28;20032;-31
2022/06/13 00:23:25;;;;;;;10.73;4.93;;;;;;;19.14;95.07;99768.84;5087699;28;20024;-30
2022/06/13 00:25:50;;;;;;;8.63;5.90;;;;;;;19.02;95.68;99779.19;5087999;28;20105;-32
2022/06/13 00:28:15;;;;;;;7.90;5.50;;;;;;;19.06;96.16;99783.78;5087187;28;20465;-39
2022/06/13 00:30:41;;;;;;;10.70;5.63;;;;;;;18.94;96.30;99772.53;5087779;28;20499;-35
2022/06/13 00:33:06;;;;;;;11.75;6.00;;;;;;;19.09;94.37;99774.31;5087425;28;20445;-33
2022/06/13 00:35:32;;;;;;;9.13;5.53;;;;;;;19.02;95.73;99771.94;5087566;28;20102;-29
2022/06/13 00:37:57;;;;;;;10.10;5.30;;;;;;;19.02;95.09;99766.53;5087606;28;20030;-34
2022/06/13 00:40:23;;;;;;;11.90;5.55;;;;;;;19.11;94.56;99758.59;5087422;28;20658;-31
2022/06/13 00:42:49;;;;;;;8.52;5.20;;;;;;;19.14;93.83;99758.03;5087484;28;20024;-30
2022/06/13 00:45:20;;;;;;;9.60;5.55;;;;;;;18.87;95.72;99758.50;5068942;28;20040;-32
2022/06/13 00:47:51;;;;;;;8.32;5.60;;;;;;;18.89;95.13;99755.53;5069016;28;20387;-31
2022/06/13 00:50:19;;;;;;;8.98;5.20;;;;;;;18.97;94.77;99763.84;5087221;28;20031;-30
2022/06/13 00:52:50;;;;;;;8.70;4.75;;;;;;;18.83;96.65;99774.47;5068842;28;20031;-34
2022/06/13 00:55:33;;;;;;;8.50;5.30;;;;;;;18.66;96.50;99758.63;5068432;28;20032;-32
2022/06/13 00:58:00;;;;;;;8.38;5.40;;;;;;;18.93;95.66;99783.59;5087227;28;20035;-33
2022/06/13 01:00:27;;;;;;;8.52;5.13;;;;;;;18.80;95.93;99760.75;5068560;28;20047;-30
2022/06/13 01:02:54;;;;;;;9.00;5.30;;;;;;;18.82;96.20;99763.97;5068462;28;20060;-30
2022/06/13 01:05:24;;;;;;;7.72;4.97;;;;;;;18.87;95.09;99767.41;5067586;28;20024;-32
2022/06/13 01:07:52;;;;;;;8.60;5.18;;;;;;;18.95;94.61;99760.63;5086793;28;20068;-34
2022/06/13 01:13:09;;;;;;;8.95;5.15;;;;;;;18.93;94.70;99767.41;5086860;28;20421;-31
2022/06/13 01:16:16;;;;;;;10.73;5.30;;;;;;;19.05;94.05;99762.44;5068365;28;20028;-32
2022/06/13 01:19:27;;;;;;;8.32;4.88;;;;;;;18.93;93.47;99762.00;5068490;28;20028;-31
2022/06/13 01:22:00;;;;;;;9.30;5.18;;;;;;;18.78;94.16;99750.19;5023822;28;20046;-34
2022/06/13 01:24:59;;;;;;;9.02;5.22;;;;;;;18.55;94.76;99753.56;5058761;28;20539;-35
2022/06/13 01:27:49;;;;;;;9.50;4.85;;;;;;;18.56;95.08;99768.69;5086798;28;20028;-29
2022/06/13 01:30:40;;;;;;;9.23;5.38;;;;;;;18.61;94.58;99755.16;5086675;28;20066;-29
2022/06/13 01:33:30;;;;;;;10.63;5.40;;;;;;;18.60;94.82;99758.94;5086202;28;20020;-29
2022/06/13 01:36:28;;;;;;;7.72;5.28;;;;;;;18.57;94.76;99760.31;5086720;28;20032;-30
2022/06/13 01:39:12;;;;;;;7.22;5.00;;;;;;;18.63;93.99;99758.38;5068064;28;20122;-30
2022/06/13 01:41:53;;;;;;;9.40;5.25;;;;;;;18.40;94.80;99744.47;5068108;28;20038;-29
2022/06/13 01:44:22;;;;;;;8.50;5.20;;;;;;;18.41;95.33;99762.28;5068032;28;20028;-31
2022/06/13 01:47:01;;;;;;;8.73;5.80;;;;;;;18.37;95.17;99750.44;5067828;28;20035;-30
2022/06/13 01:49:30;;;;;;;8.20;5.13;;;;;;;18.33;95.31;99757.47;5051786;28;20447;-31
2022/06/13 01:52:19;;;;;;;9.43;5.30;;;;;;;18.52;93.73;99767.63;5086440;28;20044;-34
2022/06/13 01:54:54;;;;;;;7.75;4.85;;;;;;;18.39;94.08;99753.66;5067591;28;20028;-33
2022/06/13 01:57:29;;;;;;;7.05;5.55;;;;;;;18.48;94.03;99767.38;5085979;28;20407;-30
2022/06/13 02:00:13;;;;;;;7.05;5.40;;;;;;;18.42;93.91;99750.38;5067513;28;20555;-31
2022/06/13 02:02:52;;;;;;;8.68;4.75;;;;;;;18.48;94.27;99768.19;5067771;28;20047;-31
2022/06/13 02:05:21;;;;;;;7.80;4.75;;;;;;;18.36;95.07;99754.19;5067646;28;20026;-32
2022/06/13 02:07:52;;;;;;;9.15;5.13;;;;;;;18.26;94.81;99746.16;5086033;28;20024;-30
2022/06/13 02:10:32;;;;;;;9.55;5.30;;;;;;;18.34;95.18;99755.56;5067702;28;20063;-30
2022/06/13 02:13:06;;;;;;;9.63;5.13;;;;;;;18.45;95.09;99757.94;5067787;28;20066;-31
2022/06/13 02:15:39;;;;;;;7.85;4.90;;;;;;;18.42;93.69;99739.59;5086096;28;20035;-35
2022/06/13 02:18:21;;;;;;;7.72;5.00;;;;;;;18.33;94.78;99754.78;5071986;28;20461;-29
2022/06/13 02:20:49;;;;;;;8.77;4.97;;;;;;;18.26;94.78;99754.25;5089985;28;20143;-33
2022/06/13 02:23:21;;;;;;;7.28;5.30;;;;;;;18.30;94.88;99747.22;5071685;28;20035;-32
2022/06/13 02:25:57;;;;;;;8.60;4.80;;;;;;;18.37;95.25;99763.94;5071834;28;20039;-35
2022/06/13 02:28:35;;;;;;;7.95;5.43;;;;;;;18.39;94.98;99764.47;5071494;28;20126;-40
2022/06/13 02:31:11;;;;;;;10.63;5.80;;;;;;;18.29;95.04;99745.63;5071398;28;20402;-32
2022/06/13 02:33:54;;;;;;;10.05;5.85;;;;;;;18.46;94.99;99770.34;5071744;28;20498;-35
2022/06/13 02:36:29;;;;;;;9.55;5.30;;;;;;;18.37;94.72;99760.41;5071661;28;20028;-30
2022/06/13 02:39:09;;;;;;;7.65;5.30;;;;;;;18.33;94.50;99765.56;5090028;28;20051;-35
2022/06/13 02:41:45;;;;;;;9.38;5.65;;;;;;;18.31;94.86;99761.50;5089291;28;20489;-36
2022/06/13 02:44:15;;;;;;;11.18;6.25;;;;;;;18.36;94.57;99770.41;5089820;28;20028;-35
2022/06/13 02:46:48;;;;;;;8.85;5.57;;;;;;;18.36;94.78;99775.00;5089645;28;20028;-31
2022/06/13 02:49:20;;;;;;;10.10;5.50;;;;;;;18.40;94.56;99776.06;5071154;28;20125;-30
2022/06/13 02:52:03;;;;;;;13.10;5.13;;;;;;;18.29;94.56;99767.22;5089402;28;20486;-31
2022/06/13 02:54:40;;;;;;;7.90;5.60;;;;;;;18.19;95.49;99751.88;5071281;28;20407;-30
2022/06/13 02:57:23;;;;;;;7.82;5.20;;;;;;;18.25;95.38;99764.25;5070851;28;20035;-31
2022/06/13 02:59:59;;;;;;;8.55;6.03;;;;;;;18.43;95.34;99779.03;5070626;28;20806;-30
2022/06/13 03:02:47;;;;;;;10.27;5.40;;;;;;;18.30;94.09;99763.41;5070640;28;20064;-32
2022/06/13 03:05:34;;;;;;;10.35;5.80;;;;;;;18.21;95.03;99783.97;5089291;28;20067;-32
2022/06/13 03:08:25;;;;;;;7.38;5.47;;;;;;;18.27;95.26;99796.38;5070870;28;20058;-34
2022/06/13 03:11:04;;;;;;;7.72;5.30;;;;;;;18.27;95.86;99788.28;5070620;28;20036;-32
2022/06/13 03:14:00;;;;;;;10.43;6.05;;;;;;;18.43;94.89;99797.13;5089343;28;20028;-31
2022/06/13 03:16:28;;;;;;;10.18;5.68;;;;;;;18.25;96.33;99787.75;5089224;28;20028;-30
2022/06/13 03:18:57;;;;;;;;;;;;;;;18.39;94.85;99791.47;5089665;28;20411;-31
2022/06/13 03:21:38;;;;;;;8.55;5.80;;;;;;;18.30;95.43;99786.91;5070569;28;20043;-35
2022/06/13 03:24:46;;;;;;;8.18;6.10;;;;;;;18.34;96.07;99790.66;5070753;28;20108;-40
2022/06/13 03:27:29;;;;;;;8.18;5.05;;;;;;;18.46;94.15;99781.16;5088091;28;20035;-30
2022/06/13 03:30:07;;;;;;;9.70;6.15;;;;;;;18.55;94.25;99785.97;5088805;28;20505;-31
2022/06/13 03:32:44;;;;;;;10.52;5.43;;;;;;;18.54;94.89;99789.75;5070681;28;20122;-35
2022/06/13 03:35:14;;;;;;;8.25;5.30;;;;;;;18.41;94.59;99778.50;5088707;28;20067;-35
2022/06/13 03:37:45;;;;;;;9.57;5.53;;;;;;;18.41;95.27;99788.50;5070350;28;20024;-33
2022/06/13 03:40:22;;;;;;;7.72;5.35;;;;;;;18.59;95.58;99795.94;5070114;28;20036;-38
2022/06/13 03:43:05;;;;;;;7.80;5.72;;;;;;;18.86;93.80;99792.84;5070581;28;20036;-31
2022/06/13 03:45:42;;;;;;;7.65;5.53;;;;;;;18.89;93.31;99790.66;5088812;28;20035;-33
2022/06/13 03:48:16;;;;;;;9.57;5.65;;;;;;;18.71;94.91;99792.88;5070318;28;20085;-30
2022/06/13 03:50:47;;;;;;;9.98;5.40;;;;;;;18.74;94.07;99781.53;5088481;28;20028;-31
2022/06/13 03:53:22;;;;;;;7.38;5.32;;;;;;;18.73;94.63;99779.91;5070172;28;20749;-31
2022/06/13 03:56:07;;;;;;;9.35;5.95;;;;;;;18.81;94.12;99789.34;5070319;28;20024;-31
2022/06/13 03:58:38;;;;;;;9.70;6.25;;;;;;;19.07;92.74;99790.00;5088879;28;20027;-32
2022/06/13 04:01:20;;;;;;;9.90;5.70;;;;;;;19.06;92.90;99782.97;5070195;28;20040;-35
2022/06/13 04:03:46;;;;;;;9.95;5.47;;;;;;;19.19;92.63;99785.03;5070370;28;20419;-31
2022/06/13 04:06:35;;;;;;;8.30;5.50;;;;;;;19.14;92.26;99785.06;5088399;28;20024;-32
2022/06/13 04:09:23;;;;;;;6.82;5.45;;;;;;;19.16;92.57;99790.19;5069553;28;20028;-34
2022/06/13 04:12:13;;;;;;;10.30;5.82;;;;;;;19.24;92.86;99801.19;5087904;28;20069;-36
2022/06/13 04:14:51;;;;;;;7.35;5.55;;;;;;;19.06;94.68;99800.00;5087730;28;20099;-30
2022/06/13 04:17:36;;;;;;;7.28;5.47;;;;;;;19.17;94.04;99789.91;5068910;28;20438;-30
2022/06/13 04:20:14;;;;;;;7.10;5.30;;;;;;;19.20;92.71;99800.16;5069824;28;20113;-29
2022/06/13 04:22:46;;;;;;;7.45;5.72;;;;;;;19.08;93.50;99802.41;5088070;28;20028;-37
2022/06/13 04:25:30;;;;;;;9.40;5.65;;;;;;;18.94;93.92;99801.41;5069411;28;20672;-37
2022/06/13 04:28:20;;;;;;;7.70;5.80;;;;;;;19.05;93.02;99808.38;5087518;28;20036;-30
2022/06/13 04:30:49;;;;;;;8.40;5.28;;;;;;;18.81;93.97;99803.66;5087579;28;20032;-30
2022/06/13 04:33:21;;;;;;;8.02;5.88;;;;;;;18.75;95.11;99780.44;5069264;28;20611;-35
2022/06/13 04:35:48;;;;;;;9.02;6.10;;;;;;;18.96;94.23;99807.34;5069147;28;20038;-31
2022/06/13 04:38:16;;;;;;;9.82;5.78;;;;;;;19.02;94.37;99814.34;5068983;28;20032;-35
2022/06/13 04:40:50;;;;;;;7.93;5.97;;;;;;;19.14;93.24;99820.19;5068053;28;20020;-30
2022/06/13 04:43:19;;;;;;;10.07;5.22;;;;;;;19.02;94.46;99801.66;5068975;28;20024;-33
2022/06/13 04:45:59;;;;;;;10.30;5.75;;;;;;;19.41;93.40;99827.84;5069110;28;20120;-30
2022/06/13 04:48:25;;;;;;;8.80;5.55;;;;;;;19.59;92.11;99809.28;5069166;28;20031;-32
2022/06/13 04:50:56;;;;;;;7.22;5.90;;;;;;;19.78;92.21;99822.94;5068663;28;20027;-32
2022/06/13 04:53:52;;;;;;;8.80;5.53;;;;;;;20.05;91.29;99817.78;5087242;28;20114;-33
2022/06/13 04:56:20;;;;;;;8.57;5.28;;;;;;;20.18;88.57;99823.59;5087047;28;20629;-32
2022/06/13 04:58:47;;;;;;;8.63;5.28;;;;;;;20.26;88.88;99815.63;5087044;28;20031;-30
2022/06/13 05:01:31;;;;;;;7.20;4.63;;;;;;;20.38;86.85;99834.16;5068100;28;20056;-32
2022/06/13 05:03:59;;;;;;;8.90;5.22;;;;;;;20.28;87.44;99813.44;5068786;28;20075;-33
2022/06/13 05:06:32;;;;;;;8.68;5.25;;;;;;;20.41;85.50;99824.66;5068460;28;20682;-31
2022/06/13 05:09:03;;;;;;;7.43;4.30;;;;;;;20.41;84.85;99820.06;5068815;28;20459;-30
2022/06/13 05:11:36;;;;;;;41.40;10.98;;;;;;;20.46;84.11;99798.31;5068507;28;20567;-32
2022/06/13 05:14:09;;;;;;;8.00;4.72;;;;;;;20.71;84.30;99820.78;5068889;28;20020;-31
2022/06/13 05:16:56;;;;;;;8.05;4.57;;;;;;;20.82;82.18;99827.69;5068463;28;20060;-30
2022/06/13 05:19:31;;;;;;;7.33;4.23;;;;;;;20.97;84.27;99829.34;5068315;28;20385;-30
2022/06/13 05:22:24;;;;;;;6.10;4.03;;;;;;;21.26;80.50;99820.22;5068289;28;20119;-32
2022/06/13 05:24:55;;;;;;;7.13;4.30;;;;;;;21.15;82.54;99824.22;5068414;28;20068;-32
2022/06/13 05:27:21;;;;;;;50.95;11.23;;;;;;;21.34;79.59;99826.88;5086619;28;20028;-37
2022/06/13 05:29:46;;;;;;;8.93;5.45;;;;;;;21.32;82.40;99807.41;5086423;28;20031;-34
2022/06/13 05:32:13;;;;;;;7.57;5.10;;;;;;;21.49;80.50;99804.94;5086706;28;20027;-30
2022/06/13 05:34:41;;;;;;;10.75;5.72;;;;;;;21.55;80.86;99822.75;5068005;28;20036;-31
2022/06/13 05:37:07;;;;;;;6.80;4.50;;;;;;;21.48;78.17;99800.63;5068093;28;20036;-34
2022/06/13 05:39:35;;;;;;;80.03;15.10;;;;;;;21.47;78.60;99804.44;5086415;28;20586;-30
2022/06/13 05:42:00;;;;;;;20.75;7.38;;;;;;;21.52;79.25;99814.41;5068107;28;20078;-33
2022/06/13 05:44:26;;;;;;;7.60;4.25;;;;;;;21.57;78.99;99798.03;5068341;28;20561;-30
2022/06/13 05:46:52;;;;;;;6.47;4.07;;;;;;;21.66;80.02;99810.63;5086412;28;20407;-38
2022/06/13 05:49:17;;;;;;;6.15;3.95;;;;;;;21.70;78.33;99797.28;5086254;28;20024;-30
2022/06/13 05:51:43;;;;;;;6.30;4.32;;;;;;;21.72;78.98;99789.63;5086170;28;20024;-30
2022/06/13 05:54:10;;;;;;;6.10;4.43;;;;;;;21.79;78.88;99802.81;5086421;28;20158;-34
2022/06/13 05:56:36;;;;;;;9.57;5.93;;;;;;;21.95;78.86;99798.69;5068039;28;20092;-35
2022/06/13 05:59:02;;;;;;;6.78;4.57;;;;;;;22.05;77.07;99809.34;5067754;28;20046;-36
2022/06/13 06:01:27;;;;;;;103.10;17.25;;;;;;;22.20;77.07;99810.16;5085856;28;20028;-35
2022/06/13 06:03:54;;;;;;;6.85;4.20;;;;;;;22.19;76.54;99813.97;5067404;28;20048;-33
2022/06/13 06:06:24;;;;;;;7.03;4.10;;;;;;;22.30;76.90;99793.69;5086048;28;20039;-32
2022/06/13 06:08:50;;;;;;;5.53;4.38;;;;;;;22.51;76.32;99799.47;5085884;28;20115;-33
2022/06/13 06:11:16;;;;;;;7.93;4.53;;;;;;;22.54;76.57;99800.78;5067310;28;20563;-30
2022/06/13 06:13:42;;;;;;;7.20;4.90;;;;;;;22.94;76.06;99811.84;5067506;28;20836;-35
2022/06/13 06:16:13;;;;;;;8.70;5.45;;;;;;;22.71;73.88;99798.22;5067383;28;20119;-35
2022/06/13 06:18:38;;;;;;;8.15;5.65;;;;;;;23.04;74.69;99808.91;5067668;28;20097;-30
2022/06/13 06:21:04;;;;;;;10.55;5.68;;;;;;;23.04;73.66;99811.63;5085776;28;20027;-34
2022/06/13 06:23:29;;;;;;;8.10;4.85;;;;;;;22.88;74.35;99792.13;5085877;28;20028;-31
2022/06/13 06:25:56;;;;;;;7.57;4.53;;;;;;;23.05;73.65;99807.81;5086371;28;20422;-32
2022/06/13 06:28:25;;;;;;;12.27;4.93;;;;;;;23.13;72.50;99809.78;5067724;28;20132;-31
2022/06/13 06:30:53;;;;;;;16.25;4.95;;;;;;;23.17;73.11;99799.91;5067180;28;20032;-30
2022/06/13 06:33:18;;;;;;;;;;;;;;;23.20;72.38;99812.88;5067856;28;20044;-35
2022/06/13 06:35:44;;;;;;;8.93;4.60;;;;;;;23.10;73.42;99810.41;5090973;28;19908;-32
2022/06/13 06:38:10;;;;;;;9.27;4.53;;;;;;;23.06;74.16;99820.28;5092433;28;20055;-30
2022/06/13 06:40:37;;;;;;;7.35;5.20;;;;;;;22.91;74.50;99802.41;5087499;28;20036;-30
2022/06/13 06:43:03;;;;;;;8.45;4.60;;;;;;;23.20;73.90;99821.03;5087456;28;20024;-32
2022/06/13 06:45:28;;;;;;;8.30;6.20;;;;;;;23.14;74.96;99811.38;5087098;28;20538;-33
2022/06/13 06:47:55;;;;;;;7.47;4.45;;;;;;;23.11;71.92;99822.91;5087690;28;20092;-31
2022/06/13 06:50:24;;;;;;;7.75;4.47;;;;;;;23.37;72.50;99825.78;5087677;28;20084;-30
2022/06/13 06:52:50;;;;;;;6.10;4.03;;;;;;;23.49;71.47;99827.94;5087711;28;20024;-32
2022/06/13 07:00:49;;;;;;;7.85;5.43;;;;;;;23.43;74.75;99810.13;5105861;28;20129;-35
2022/06/13 07:03:15;;;;;;;6.82;5.20;;;;;;;23.59;72.81;99832.34;5088229;28;20117;-32
2022/06/13 07:05:41;;;;;;;5.95;4.40;;;;;;;23.53;72.66;99828.13;5109778;28;20044;-30
2022/06/13 07:08:06;;;;;;;7.05;4.68;;;;;;;23.40;73.45;99825.19;5091308;28;20108;-33
2022/06/13 07:10:32;;;;;;;9.90;6.85;;;;;;;23.26;72.54;99829.88;5109479;28;20431;-31
2022/06/13 07:12:58;;;;;;;10.18;8.23;;;;;;;23.27;72.00;99832.31;5109683;28;20037;-31
2022/06/13 07:15:23;;;;;;;8.18;5.13;;;;;;;23.24;72.64;99815.78;5109336;28;20031;-38
2022/06/13 07:17:49;;;;;;;7.80;5.40;;;;;;;23.44;73.15;99825.38;5109990;28;20110;-34
2022/06/13 07:20:15;;;;;;;6.57;4.93;;;;;;;23.30;72.05;99822.72;5109638;28;20032;-33
2022/06/13 07:22:49;;;;;;;8.88;4.32;;;;;;;23.27;72.54;99831.47;5109257;28;20034;-33
2022/06/13 07:25:26;;;;;;;9.48;5.63;;;;;;;23.23;73.97;99830.50;5090644;28;20032;-32
2022/06/13 07:27:51;;;;;;;7.55;5.53;;;;;;;23.32;73.45;99838.72;5109525;28;20028;-33
2022/06/13 07:30:22;;;;;;;8.18;5.30;;;;;;;23.41;71.88;99834.13;5109862;28;20506;-30
2022/06/13 07:32:48;;;;;;;11.75;9.07;;;;;;;23.30;72.74;99824.63;5091027;28;20471;-36
2022/06/13 07:35:17;;;;;;;8.10;4.47;;;;;;;23.37;72.09;99838.59;5090939;28;20668;-35
2022/06/13 07:40:28;;;;;;;7.60;4.20;;;;;;;23.36;73.47;99828.84;5109547;28;20115;-34
2022/06/13 07:42:57;;;;;;;7.78;4.53;;;;;;;23.29;73.02;99829.25;5090952;28;20031;-31
2022/06/13 07:45:28;;;;;;;8.60;5.22;;;;;;;23.38;73.27;99834.78;5090627;28;20040;-37
2022/06/13 07:47:54;;;;;;;8.50;5.25;;;;;;;23.39;74.45;99825.47;5090085;28;20563;-33
2022/06/13 07:50:23;;;;;;;9.52;5.75;;;;;;;23.63;74.71;99834.13;5090592;28;20035;-31
2022/06/13 07:52:50;;;;;;;9.27;6.07;;;;;;;23.78;73.74;99834.84;5090672;28;20031;-33
2022/06/13 07:55:17;;;;;;;8.43;5.40;;;;;;;23.84;74.28;99825.44;5090328;28;20701;-30
2022/06/13 07:57:44;;;;;;;8.05;5.05;;;;;;;23.91;73.96;99849.53;5090438;28;20487;-40
2022/06/13 08:00:18;;;;;;;8.65;5.25;;;;;;;23.95;73.96;99840.41;5090363;28;20146;-30
2022/06/13 08:02:43;;;;;;;7.93;4.78;;;;;;;24.08;73.32;99848.78;5089997;28;20051;-31
2022/06/13 08:05:09;;;;;;;6.25;5.10;;;;;;;24.03;74.13;99825.22;5108793;28;20028;-32
2022/06/13 08:07:34;;;;;;;6.75;4.97;;;;;;;24.23;73.32;99818.38;5109085;28;20455;-31
2022/06/13 08:09:59;;;;;;;6.07;4.95;;;;;;;24.41;70.84;99839.09;5108669;28;20031;-36
2022/06/13 08:12:25;;;;;;;7.30;5.20;;;;;;;24.44;70.74;99830.31;5108646;28;20027;-33
2022/06/13 08:14:51;;;;;;;6.80;4.75;;;;;;;24.72;70.74;99854.56;5108022;28;20149;-30
2022/06/13 08:17:20;;;;;;;7.53;4.75;;;;;;;24.80;70.42;99861.97;5108157;28;20039;-32
2022/06/13 08:19:47;;;;;;;8.57;5.18;;;;;;;25.09;71.33;99860.56;5089927;28;20487;-33
2022/06/13 08:22:14;;;;;;;7.82;4.72;;;;;;;25.39;70.61;99868.91;5108349;28;20027;-33
2022/06/13 08:24:40;;;;;;;;;;;;;;;25.46;68.04;99861.03;5090226;28;20067;-38
2022/06/13 08:27:05;;;;;;;9.65;4.70;;;;;;;25.52;67.65;99867.94;5107953;28;19946;-32
2022/06/13 08:29:31;;;;;;;6.63;4.82;;;;;;;25.41;67.32;99859.25;5108054;28;20023;-32
2022/06/13 08:31:56;;;;;;;7.85;4.03;;;;;;;25.44;67.04;99860.56;5108106;28;20064;-31
2022/06/13 08:34:22;;;;;;;8.48;4.88;;;;;;;25.30;67.39;99858.00;5108068;28;20031;-31
2022/06/13 08:36:47;;;;;;;8.52;5.10;;;;;;;25.21;69.23;99858.03;5107983;28;20080;-33
2022/06/13 08:39:14;;;;;;;8.77;4.68;;;;;;;25.41;69.55;99872.91;5107757;28;20055;-30
2022/06/13 08:42:03;;;;;;;6.47;4.80;;;;;;;25.33;70.60;99871.00;5089184;28;20513;-33
2022/06/13 08:44:41;;;;;;;8.07;4.80;;;;;;;25.49;68.97;99868.56;5107162;28;20054;-30
2022/06/13 08:47:20;;;;;;;7.68;4.90;;;;;;;25.32;69.77;99876.81;5089141;28;20578;-36
2022/06/13 08:49:54;;;;;;;10.32;4.80;;;;;;;25.36;69.70;99875.81;5089353;28;20038;-30
2022/06/13 08:52:42;;;;;;;5.85;4.65;;;;;;;25.33;69.90;99870.19;5089069;28;20032;-30
2022/06/13 08:55:24;;;;;;;7.38;5.00;;;;;;;25.30;70.43;99862.69;5107473;28;20094;-29
2022/06/13 08:58:00;;;;;;;8.77;4.80;;;;;;;25.14;69.57;99851.41;5107927;28;20046;-31
2022/06/13 09:00:30;;;;;;;8.75;5.05;;;;;;;25.29;70.10;99859.13;5107187;28;20043;-35
2022/06/13 09:03:06;;;;;;;8.93;5.00;;;;;;;25.23;69.93;99861.22;5106950;28;20491;-32
2022/06/13 09:05:38;;;;;;;6.65;5.00;;;;;;;25.16;70.64;99839.03;5088876;28;20027;-32
2022/06/13 09:08:14;;;;;;;6.25;4.70;;;;;;;25.11;71.22;99852.88;5089022;28;20030;-38
2022/06/13 09:10:51;;;;;;;7.15;4.85;;;;;;;25.18;71.24;99853.16;5088773;28;20030;-32
2022/06/13 09:13:33;;;;;;;9.17;5.37;;;;;;;25.16;71.11;99860.88;5088660;28;20173;-33
2022/06/13 09:16:04;;;;;;;8.05;5.53;;;;;;;25.12;72.57;99854.44;5107295;28;20110;-32
2022/06/13 09:18:48;;;;;;;6.85;4.55;;;;;;;24.99;72.05;99844.53;5107303;28;20032;-30
2022/06/13 09:21:26;;;;;;;7.38;4.90;;;;;;;25.07;71.81;99862.81;5088495;28;20080;-34
2022/06/13 09:24:09;;;;;;;5.95;4.65;;;;;;;25.13;72.06;99849.78;5088546;28;20019;-32
2022/06/13 09:26:53;;;;;;;7.95;5.03;;;;;;;25.37;71.31;99865.69;5088081;28;20042;-31
2022/06/13 09:29:50;;;;;;;7.18;4.97;;;;;;;25.52;71.32;99864.38;5106711;28;20023;-34
2022/06/13 09:32:29;;;;;;;7.35;5.40;;;;;;;25.54;71.58;99873.88;5106679;28;20043;-35
2022/06/13 09:35:08;;;;;;;6.43;5.20;;;;;;;25.59;70.56;99868.22;5088662;28;20558;-38
2022/06/13 09:37:53;;;;;;;7.80;5.03;;;;;;;25.52;71.11;99846.09;5088266;28;20799;-33
2022/06/13 09:40:27;;;;;;;8.65;5.55;;;;;;;25.55;70.11;99855.56;5106617;28;20471;-34
2022/06/13 09:43:11;;;;;;;8.80;5.80;;;;;;;25.79;68.84;99866.75;5106832;28;20070;-33
2022/06/13 09:45:46;;;;;;;10.45;5.25;;;;;;;25.91;67.28;99862.56;5106765;28;20015;-33
2022/06/13 09:48:32;;;;;;;7.68;4.90;;;;;;;26.09;65.82;99868.75;5106766;28;20031;-36
2022/06/13 09:51:17;;;;;;;7.38;5.03;;;;;;;25.91;66.98;99851.63;5091965;28;20047;-33
2022/06/13 09:53:58;;;;;;;9.70;5.00;;;;;;;25.98;66.13;99868.31;5088494;28;20039;-34
2022/06/13 09:56:36;;;;;;;7.57;5.22;;;;;;;25.91;67.22;99857.91;5106641;28;20023;-31
2022/06/13 09:59:09;;;;;;;9.55;5.70;;;;;;;26.01;66.50;99843.88;5087783;28;20039;-30
2022/06/13 10:01:46;;;;;;;7.13;5.18;;;;;;;26.08;67.27;99862.50;5088088;28;20047;-33
2022/06/13 10:04:34;;;;;;;8.30;5.80;;;;;;;26.24;67.79;99857.28;5088243;28;20516;-30
2022/06/13 10:07:18;;;;;;;9.07;5.93;;;;;;;26.29;70.62;99859.81;5088056;28;20418;-33
2022/06/13 10:10:12;;;;;;;8.82;5.78;;;;;;;26.23;66.29;99859.19;5087992;28;20074;-35
2022/06/13 10:12:37;;;;;;;7.95;6.18;;;;;;;26.29;70.11;99862.56;5088095;28;20092;-31
2022/06/13 10:15:18;;;;;;;8.02;5.65;;;;;;;26.03;67.60;99862.66;5106433;28;20504;-34
2022/06/13 10:18:14;;;;;;;13.55;6.82;;;;;;;25.98;67.44;99869.13;5106313;28;20035;-34
2022/06/13 10:20:51;;;;;;;9.70;6.20;;;;;;;26.06;67.36;99865.56;5106543;28;20027;-31
2022/06/13 10:23:33;;;;;;;;;;;;;;;26.16;68.25;99863.59;5088117;28;20631;-30
2022/06/13 10:26:22;;;;;;;7.90;5.80;;;;;;;26.01;68.41;99867.66;5106126;28;19907;-32
2022/06/13 10:28:48;;;;;;;11.32;6.68;;;;;;;26.06;69.59;99865.56;5106386;28;20028;-34
2022/06/13 10:31:22;;;;;;;10.10;6.18;;;;;;;26.01;69.84;99868.47;5105681;28;20434;-31
2022/06/13 10:34:07;;;;;;;8.98;5.80;;;;;;;25.94;67.59;99867.38;5106072;28;20059;-37
2022/06/13 10:36:50;;;;;;;8.80;5.60;;;;;;;26.06;66.74;99859.28;5106000;28;20479;-34
2022/06/13 10:39:18;;;;;;;10.55;6.05;;;;;;;25.94;67.47;99853.72;5091685;28;20028;-39
2022/06/13 10:41:47;;;;;;;8.00;5.97;;;;;;;26.09;67.98;99841.44;5091595;28;20032;-34
2022/06/13 10:44:17;;;;;;;7.80;5.97;;;;;;;26.01;68.42;99835.69;5110195;28;20023;-31
2022/06/13 10:46:46;;;;;;;9.93;6.72;;;;;;;26.20;67.36;99832.53;5091746;28;20030;-34
2022/06/13 10:49:17;;;;;;;8.50;6.25;;;;;;;26.33;67.20;99835.38;5091203;28;20024;-32
2022/06/13 10:51:45;;;;;;;7.40;5.45;;;;;;;26.50;64.42;99835.28;5091573;28;20042;-33
2022/06/13 10:54:19;;;;;;;7.68;5.07;;;;;;;26.64;61.32;99837.78;5091620;28;20596;-34
2022/06/13 10:56:47;;;;;;;8.82;5.70;;;;;;;26.65;62.39;99820.25;5091431;28;20043;-31
2022/06/13 10:59:21;;;;;;;;;;;;;;;26.79;60.93;99828.19;5091774;28;20085;-31
2022/06/13 11:02:00;;;;;;;7.25;5.65;;;;;;;27.12;64.12;99830.97;5109297;28;19963;-32
2022/06/13 11:04:34;;;;;;;7.72;5.35;;;;;;;27.18;59.81;99826.09;5109903;28;20019;-31
2022/06/13 11:07:12;;;;;;;8.20;4.93;;;;;;;27.22;58.19;99827.03;5091381;28;20104;-42
2022/06/13 11:09:39;;;;;;;6.80;5.43;;;;;;;27.42;62.10;99826.19;5091361;28;20116;-32
2022/06/13 11:12:24;;;;;;;6.78;5.50;;;;;;;27.41;56.85;99801.88;5091488;28;20059;-35
2022/06/13 11:23:51;;;;;;;7.90;5.70;;;;;;;27.52;53.96;99822.22;5109779;28;20120;-31
2022/06/13 11:29:03;;;;;;;7.70;5.15;;;;;;;27.61;53.13;99816.66;5109679;28;20193;-30
2022/06/13 11:31:30;;;;;;;9.93;5.70;;;;;;;27.68;55.17;99813.34;5091094;28;20039;-34
2022/06/13 11:33:56;;;;;;;7.05;5.25;;;;;;;27.96;56.20;99786.91;5090874;28;20030;-30
2022/06/13 11:36:28;;;;;;;10.07;5.30;;;;;;;28.07;54.06;99806.44;5109502;28;20762;-30
2022/06/13 11:39:02;;;;;;;6.65;5.20;;;;;;;28.07;52.65;99806.44;5090585;28;20074;-33
2022/06/13 11:41:46;;;;;;;6.70;5.55;;;;;;;28.35;56.71;99779.13;5090457;28;20031;-30
2022/06/13 11:44:15;;;;;;;6.32;5.22;;;;;;;28.26;51.22;99786.69;5090749;28;20027;-35
2022/06/13 11:46:55;;;;;;;8.30;5.43;;;;;;;28.27;51.87;99793.75;5090603;28;20038;-36
2022/06/13 11:49:27;;;;;;;8.27;5.03;;;;;;;28.65;51.58;99800.81;5089783;28;20035;-32
2022/06/13 11:53:35;;;;;;;12.80;5.53;;;;;;;28.75;50.46;99803.06;5108840;28;20555;-31
2022/06/13 11:55:00;;;;;;;8.65;5.63;;;;;;;28.75;52.67;99803.06;5108859;28;20126;-35
2022/06/13 11:57:36;;;;;;;7.63;5.32;;;;;;;28.98;53.07;99799.78;5090231;28;20038;-32
2022/06/13 12:00:17;;;;;;;7.20;5.03;;;;;;;28.98;52.37;99803.31;5090002;28;20036;-33
2022/06/13 12:02:48;;;;;;;6.68;5.30;;;;;;;29.30;49.49;99797.13;5108667;28;20055;-35
2022/06/13 12:05:19;;;;;;;7.10;5.05;;;;;;;29.67;46.21;99796.91;5108475;28;20597;-33
2022/06/13 12:07:52;;;;;;;7.75;5.25;;;;;;;29.69;47.11;99794.59;5090261;28;20042;-31
2022/06/13 12:10:20;;;;;;;9.35;5.53;;;;;;;29.77;49.65;99796.41;5108405;28;20051;-33
2022/06/13 12:12:46;;;;;;;5.90;4.85;;;;;;;29.71;46.84;99782.16;5090449;28;20410;-31
2022/06/13 12:15:15;;;;;;;10.48;5.75;;;;;;;29.49;48.94;99785.47;5108465;28;20020;-30
2022/06/13 12:17:49;;;;;;;12.15;5.95;;;;;;;29.58;49.40;99789.63;5090204;28;20043;-35
2022/06/13 12:20:29;;;;;;;7.70;5.25;;;;;;;29.36;48.93;99782.00;5108486;28;20032;-30
2022/06/13 12:23:05;;;;;;;7.32;5.53;;;;;;;29.60;49.01;99781.84;5089911;28;20097;-36
2022/06/13 12:25:41;;;;;;;9.90;5.90;;;;;;;29.67;51.88;99780.41;5089965;28;20470;-37
2022/06/13 12:28:12;;;;;;;7.33;5.57;;;;;;;29.55;47.35;99782.13;5089979;28;20036;-30